• Join FlightAware (Why Join?)
  • Login
  • US Flag 
01:52PM EST


 

Airport Tracker/Info


-or-


 

Live Flight TrackerFlight Track Log ✈ SWA2130 ✈ 24-Apr-2013 ✈ KSFO - KLAX

Flight Track Log - Related Links

Times and Time Zones

All times are in EDT time to prevent confusion due to time zone crossing. See the SWA2130 flight status page for this flight to view local times or setup timezone preferences in your user account.

Time Position Orientation Groundspeed Altitude Reporting Facility
EDT Latitude Longitude Course Direction KTS MPH feet Rate Location/Type
06:56PM 37.6833 -122.3667 141° Southeast 201 231 2,900  Level Northern Cal TRACON
06:57PM 37.6833 -122.4167 270° West 235 270 4,000 1,800 Climbing Northern Cal TRACON
06:58PM 37.6167 -122.4500 202° Southwest 222 255 6,600 2,220 Climbing Northern Cal TRACON
06:59PM 37.5717 -122.4542 184° South 260 299 7,900 2,760 Climbing Oakland Center
07:00PM 37.4994 -122.4144 156° South 290 334 11,400 3,420 Climbing Oakland Center
07:01PM 37.2387 -122.0720 141° Southeast  Level FlightAware Approximate
07:01PM 37.4292 -122.3369 139° Southeast 347 399 15,000  Level Oakland Center
07:02PM 37.3631 -122.2439 132° Southeast 356 410 18,900 3,240 Climbing Oakland Center
07:03PM 37.2903 -122.1461 133° Southeast 378 435 21,700 2,760 Climbing Oakland Center
07:04PM 37.2125 -122.0397 133° Southeast 408 470 24,600 2,700 Climbing Oakland Center
07:05PM 37.1319 -121.9300 133° Southeast 426 490 27,300 2,460 Climbing Oakland Center
07:06PM 37.0486 -121.8175 133° Southeast 438 504 29,700 2,340 Climbing Oakland Center
07:07PM 36.9444 -121.6806 134° Southeast 453 521 32,200 2,400 Climbing Oakland Center
07:08PM 36.8586 -121.5642 133° Southeast 455 524 34,600 2,040 Climbing Oakland Center
07:09PM 36.7836 -121.4606 132° Southeast 454 522 36,400 1,860 Climbing Oakland Center
07:10PM 36.6811 -121.3256 133° Southeast 450 518 38,500 1,620 Climbing Oakland Center
07:11PM 36.5950 -121.2133 134° Southeast 447 514 39,800 960 Climbing Oakland Center
07:12PM 36.5081 -121.0969 133° Southeast 459 528 40,500 540 Climbing Oakland Center
07:13PM 36.4183 -120.9792 133° Southeast 468 539 41,000 240 Climbing Oakland Center
07:14PM 36.3300 -120.8633 133° Southeast 462 532 41,000  Level Oakland Center
07:15PM 36.2425 -120.7478 133° Southeast 460 529 41,000  Level Oakland Center
07:16PM 36.1542 -120.6325 133° Southeast 460 529 41,000  Level Oakland Center
07:17PM 36.0656 -120.5186 134° Southeast 459 528 41,000  Level Oakland Center
07:18PM 35.9778 -120.4044 134° Southeast 448 516 41,000  Level Oakland Center
07:19PM 35.8911 -120.2917 133° Southeast 449 517 41,000  Level Oakland Center
07:20PM 35.7856 -120.1572 134° Southeast 451 519 41,000  Level Oakland Center
07:21PM 35.6983 -120.0453 134° Southeast 450 518 41,000  Level Oakland Center
07:22PM 35.6053 -119.9419 138° Southeast 447 514 41,000 -480 Level Oakland Center
07:23PM 35.5022 -119.8539 145° Southeast 446 513 40,100 -960 Descending Oakland Center
07:24PM 35.4050 -119.7703 145° Southeast 427 491 39,100 -1,020 Descending Oakland Center
07:25PM 35.3081 -119.6864 145° Southeast 423 487 38,100 -900 Descending Oakland Center
07:26PM 35.2697 -119.6519 144° Southeast 427 491 37,900 -840 Descending Los Angeles Center
07:27PM 35.1708 -119.5686 145° Southeast 430 495 37,000 -1,140 Descending Los Angeles Center
07:28PM 35.0717 -119.4839 145° Southeast 433 498 35,600 -2,160 Descending Los Angeles Center
07:29PM 34.9750 -119.4014 145° Southeast 425 489 32,500 -2,820 Descending Los Angeles Center
07:30PM 34.8778 -119.3183 145° Southeast 425 489 29,800 -2,580 Descending Los Angeles Center
07:31PM 34.7764 -119.2325 145° Southeast 441 507 27,200 -2,700 Descending Los Angeles Center
07:32PM 34.6625 -119.1369 145° Southeast 416 479 24,300 -2,460 Descending Los Angeles Center
07:33PM 34.5769 -119.0667 146° Southeast 402 463 22,200 -2,100 Descending Los Angeles Center
07:34PM 34.4878 -119.0014 149° Southeast 376 433 20,000 -2,160 Descending Los Angeles Center
07:35PM 34.3992 -118.9494 154° Southeast 354 407 17,800 -2,280 Descending Los Angeles Center
07:36PM 34.2986 -118.8900 154° Southeast 336 387 15,400 -2,280 Descending Los Angeles Center
07:37PM 34.2172 -118.8417 154° Southeast 328 377 13,200 -1,860 Descending Los Angeles Center
07:38PM 34.1383 -118.7997 156° South 311 358 11,600 -1,560 Descending Los Angeles Center
07:39PM 34.0514 -118.7650 162° South 303 349 10,000 -780 Descending Los Angeles Center
07:40PM 34.0308 -118.6750 105° East 267 307 10,000 -360 Level Los Angeles Center
07:41PM 34.0222 -118.5858 97° East 267 307 9,300 -420 Descending Los Angeles Center
07:42PM 34.0147 -118.5092 97° East 224 258 9,200 -540 Descending Los Angeles Center
07:43PM 34.0100 -118.4453 95° East 188 216 8,300 -960 Descending Los Angeles Center
07:44PM 34.0178 -118.3847 81° East 183 211 7,300 -1,020 Descending Los Angeles Center
07:45PM 34.0247 -118.3236 82° East 183 211 6,300 -1,020 Descending Los Angeles Center
07:46PM 34.0308 -118.2631 83° East 182 209 5,300 -960 Descending Los Angeles Center
07:47PM 34.0367 -118.2044 83° East 178 205 4,300 -960 Descending Los Angeles Center
07:48PM 34.0442 -118.1339 83° East 177 204 3,300 -660 Descending Los Angeles Center
07:49PM 34.0344 -118.0842 103° East 169 194 3,000 -360 Descending Los Angeles Center
07:50PM 33.9942 -118.0917 189° South 163 188 2,600 -240 Descending Los Angeles Center
07:52PM 33.9781 -118.1439 250° West 165 190 2,600  Level Los Angeles Center
07:53PM 33.9725 -118.1989 263° West 167 192 2,600 -180 Level Los Angeles Center
07:54PM 33.9661 -118.2667 264° West 169 194 2,300 -600 Descending Los Angeles Center
07:55PM 33.9606 -118.3228 263° West 170 196 1,400 -780 Descending Los Angeles Center
07:56PM 33.9567 -118.3700 264° West 156 180 700 -540 Descending Los Angeles Center
07:57PM 33.9514 -118.4161 262° West 142 163 300 -420 Descending Los Angeles Center
07:59PM 33.9425 -118.4081 231° Southwest  Level Estimated